עמוד ראשי
METAR-TAF:

METAR-TAF

שדות תעופה :

Okeechobee, פלורידה, ארצות הברית

קו רוחב: 27-15-58N, קו אורך: 080-51-04W, גובה: 10מטר

תצפית מזג אוויר נוכחית

הדו"ח נערך לפני 26דקות, בשעה 20:15 UTC
רוח 7קשר עם כיוונים משתנים עם משבים עד 17קשר , משתנה בין מזרח/צפון-מזרח ו דרום
טמפרטורת 32 צלסיוס
לחות 52%
לחץ 1015 hPa
ראות: 16.1קילומטר
עננים פזורים בגובה 3800רגל
עננים פזורים בגובה 6000רגל

METAR: KOBE 172015Z AUTO VRB07G17KT 060V170 10SM SCT038 SCT060 32/21 A2997 RMK AO2

זמן: 16:41 (20:41 UTC)


TAF: חסר

תצפיות ותחזיות מזג אוויר לגבי יותר מ- 4,000 שדות תעופה ברחבי העולם. דוחות METAR ו- TAF.

התחנות הזמינות מסומנות בנקודות צהובות ואדומות על גבי המפה.

העבר את העכבר לנקודה הצבעונית על מנת לראות את שם התחנה.

לאחר מכן, לחץ כדי לראות את תוכן ואת תחזיות מזג האוויר.

כדי לשנות את המפה: לחץ על הכפתורים הירוקים עם הפלוס השחור כדי להתקרב; על הכפתור הירוק עם המקף כדי להתרחק; או בחיצים הירוקים למפות סמוכות.


METAR-TAF: